sensor_id;sensor_type;location;lat;lon;timestamp;temperature;humidity
10536;DHT22;5316;49.538;8.352;2023-06-10T00:00:55;21.80;1.00
10536;DHT22;5316;49.538;8.352;2023-06-10T00:03:22;21.70;1.00
10536;DHT22;5316;49.538;8.352;2023-06-10T00:05:49;21.60;1.00
10536;DHT22;5316;49.538;8.352;2023-06-10T00:08:17;21.50;1.00
10536;DHT22;5316;49.538;8.352;2023-06-10T00:10:45;21.50;1.00
10536;DHT22;5316;49.538;8.352;2023-06-10T00:13:11;21.40;60.40
10536;DHT22;5316;49.538;8.352;2023-06-10T00:15:38;21.40;92.20
10536;DHT22;5316;49.538;8.352;2023-06-10T00:18:05;21.30;99.90
10536;DHT22;5316;49.538;8.352;2023-06-10T00:20:35;21.30;99.90
10536;DHT22;5316;49.538;8.352;2023-06-10T00:23:18;21.30;99.90
10536;DHT22;5316;49.538;8.352;2023-06-10T00:25:45;21.20;99.90
10536;DHT22;5316;49.538;8.352;2023-06-10T00:28:11;21.20;99.90
10536;DHT22;5316;49.538;8.352;2023-06-10T00:30:38;21.20;99.90
10536;DHT22;5316;49.538;8.352;2023-06-10T00:33:05;21.10;1.00
10536;DHT22;5316;49.538;8.352;2023-06-10T00:35:39;21.00;1.00
10536;DHT22;5316;49.538;8.352;2023-06-10T00:38:06;21.00;1.00
10536;DHT22;5316;49.538;8.352;2023-06-10T00:40:39;20.90;1.00
10536;DHT22;5316;49.538;8.352;2023-06-10T00:43:06;20.90;1.00
10536;DHT22;5316;49.538;8.352;2023-06-10T00:45:33;20.90;68.10
10536;DHT22;5316;49.538;8.352;2023-06-10T00:48:00;20.90;92.70
10536;DHT22;5316;49.538;8.352;2023-06-10T00:50:27;20.80;99.90
10536;DHT22;5316;49.538;8.352;2023-06-10T00:52:54;20.80;99.90
10536;DHT22;5316;49.538;8.352;2023-06-10T00:55:22;20.80;99.90
10536;DHT22;5316;49.538;8.352;2023-06-10T00:57:51;20.70;99.90
10536;DHT22;5316;49.538;8.352;2023-06-10T01:00:18;20.70;99.90
10536;DHT22;5316;49.538;8.352;2023-06-10T01:02:45;20.60;99.90
10536;DHT22;5316;49.538;8.352;2023-06-10T01:05:12;20.60;99.90
10536;DHT22;5316;49.538;8.352;2023-06-10T01:07:45;20.50;99.90
10536;DHT22;5316;49.538;8.352;2023-06-10T01:10:19;20.50;99.90
10536;DHT22;5316;49.538;8.352;2023-06-10T01:12:52;20.40;99.90
10536;DHT22;5316;49.538;8.352;2023-06-10T01:15:24;20.40;99.90
10536;DHT22;5316;49.538;8.352;2023-06-10T01:17:56;20.30;99.90
10536;DHT22;5316;49.538;8.352;2023-06-10T01:20:23;20.30;99.90
10536;DHT22;5316;49.538;8.352;2023-06-10T01:22:53;20.20;99.90
10536;DHT22;5316;49.538;8.352;2023-06-10T01:25:21;20.20;99.90
10536;DHT22;5316;49.538;8.352;2023-06-10T01:27:54;20.20;1.00
10536;DHT22;5316;49.538;8.352;2023-06-10T01:30:26;20.10;1.00
10536;DHT22;5316;49.538;8.352;2023-06-10T01:32:55;20.10;1.00
10536;DHT22;5316;49.538;8.352;2023-06-10T01:35:25;20.10;1.00
10536;DHT22;5316;49.538;8.352;2023-06-10T01:37:54;20.10;1.00
10536;DHT22;5316;49.538;8.352;2023-06-10T01:40:23;20.10;1.00
10536;DHT22;5316;49.538;8.352;2023-06-10T01:42:50;20.20;99.90
10536;DHT22;5316;49.538;8.352;2023-06-10T01:45:18;20.10;1.00
10536;DHT22;5316;49.538;8.352;2023-06-10T01:47:45;20.10;1.00
10536;DHT22;5316;49.538;8.352;2023-06-10T01:50:11;20.10;1.00
10536;DHT22;5316;49.538;8.352;2023-06-10T01:52:38;20.00;1.00
10536;DHT22;5316;49.538;8.352;2023-06-10T01:55:07;20.00;1.00
10536;DHT22;5316;49.538;8.352;2023-06-10T01:57:33;20.00;1.00
10536;DHT22;5316;49.538;8.352;2023-06-10T02:00:00;19.90;65.30
10536;DHT22;5316;49.538;8.352;2023-06-10T02:02:27;19.80;95.80
10536;DHT22;5316;49.538;8.352;2023-06-10T02:04:54;19.80;99.90
10536;DHT22;5316;49.538;8.352;2023-06-10T02:07:20;19.60;99.90
10536;DHT22;5316;49.538;8.352;2023-06-10T02:09:47;19.40;1.00
10536;DHT22;5316;49.538;8.352;2023-06-10T02:12:15;19.30;99.90
10536;DHT22;5316;49.538;8.352;2023-06-10T02:14:42;19.20;99.90
10536;DHT22;5316;49.538;8.352;2023-06-10T02:17:08;19.10;1.00
10536;DHT22;5316;49.538;8.352;2023-06-10T02:19:38;19.00;1.00
10536;DHT22;5316;49.538;8.352;2023-06-10T02:22:07;19.00;1.00
10536;DHT22;5316;49.538;8.352;2023-06-10T02:24:35;19.00;1.00
10536;DHT22;5316;49.538;8.352;2023-06-10T02:27:03;19.00;1.00
10536;DHT22;5316;49.538;8.352;2023-06-10T02:29:33;18.90;19.70
10536;DHT22;5316;49.538;8.352;2023-06-10T02:32:00;18.90;99.90
10536;DHT22;5316;49.538;8.352;2023-06-10T02:34:26;18.80;99.90
10536;DHT22;5316;49.538;8.352;2023-06-10T02:36:54;18.80;1.00
10536;DHT22;5316;49.538;8.352;2023-06-10T02:39:21;18.70;1.00
10536;DHT22;5316;49.538;8.352;2023-06-10T02:41:48;18.70;1.00
10536;DHT22;5316;49.538;8.352;2023-06-10T02:44:14;18.60;20.50
10536;DHT22;5316;49.538;8.352;2023-06-10T02:46:42;18.60;99.90
10536;DHT22;5316;49.538;8.352;2023-06-10T02:49:09;18.60;99.90
10536;DHT22;5316;49.538;8.352;2023-06-10T02:51:36;18.60;17.00
10536;DHT22;5316;49.538;8.352;2023-06-10T02:54:03;18.70;1.00
10536;DHT22;5316;49.538;8.352;2023-06-10T02:56:30;18.60;1.00
10536;DHT22;5316;49.538;8.352;2023-06-10T02:58:58;18.60;1.00
10536;DHT22;5316;49.538;8.352;2023-06-10T03:01:25;18.60;1.00
10536;DHT22;5316;49.538;8.352;2023-06-10T03:03:53;18.60;1.00
10536;DHT22;5316;49.538;8.352;2023-06-10T03:06:21;18.60;1.00
10536;DHT22;5316;49.538;8.352;2023-06-10T03:08:49;18.60;1.00
10536;DHT22;5316;49.538;8.352;2023-06-10T03:11:16;18.50;1.00
10536;DHT22;5316;49.538;8.352;2023-06-10T03:13:45;18.50;1.00
10536;DHT22;5316;49.538;8.352;2023-06-10T03:16:12;18.50;1.00
10536;DHT22;5316;49.538;8.352;2023-06-10T03:18:38;18.50;1.00
10536;DHT22;5316;49.538;8.352;2023-06-10T03:21:07;18.40;1.00
10536;DHT22;5316;49.538;8.352;2023-06-10T03:23:35;18.40;99.90
10536;DHT22;5316;49.538;8.352;2023-06-10T03:26:02;18.30;99.90
10536;DHT22;5316;49.538;8.352;2023-06-10T03:28:30;18.30;99.90
10536;DHT22;5316;49.538;8.352;2023-06-10T03:30:56;18.30;99.90
10536;DHT22;5316;49.538;8.352;2023-06-10T03:33:23;18.20;99.90
10536;DHT22;5316;49.538;8.352;2023-06-10T03:35:50;18.20;1.00
10536;DHT22;5316;49.538;8.352;2023-06-10T03:38:18;18.20;1.00
10536;DHT22;5316;49.538;8.352;2023-06-10T03:40:45;18.10;1.00
10536;DHT22;5316;49.538;8.352;2023-06-10T03:43:11;18.20;1.00
10536;DHT22;5316;49.538;8.352;2023-06-10T03:45:38;18.10;1.00
10536;DHT22;5316;49.538;8.352;2023-06-10T03:48:06;18.10;99.90
10536;DHT22;5316;49.538;8.352;2023-06-10T03:50:33;18.10;99.90
10536;DHT22;5316;49.538;8.352;2023-06-10T03:53:01;18.10;99.90
10536;DHT22;5316;49.538;8.352;2023-06-10T03:55:29;18.10;99.90
10536;DHT22;5316;49.538;8.352;2023-06-10T03:57:56;18.00;99.90
10536;DHT22;5316;49.538;8.352;2023-06-10T04:00:23;18.00;1.00
10536;DHT22;5316;49.538;8.352;2023-06-10T04:02:50;17.90;1.00
10536;DHT22;5316;49.538;8.352;2023-06-10T04:05:19;17.90;1.00
10536;DHT22;5316;49.538;8.352;2023-06-10T04:07:48;17.80;1.00
10536;DHT22;5316;49.538;8.352;2023-06-10T04:10:15;17.70;4.30
10536;DHT22;5316;49.538;8.352;2023-06-10T04:12:44;17.70;99.90
10536;DHT22;5316;49.538;8.352;2023-06-10T04:15:10;17.70;99.90
10536;DHT22;5316;49.538;8.352;2023-06-10T04:17:38;17.70;99.90
10536;DHT22;5316;49.538;8.352;2023-06-10T04:20:06;17.80;99.90
10536;DHT22;5316;49.538;8.352;2023-06-10T04:22:40;17.80;99.90
10536;DHT22;5316;49.538;8.352;2023-06-10T04:25:08;17.90;99.90
10536;DHT22;5316;49.538;8.352;2023-06-10T04:27:35;17.90;99.90
10536;DHT22;5316;49.538;8.352;2023-06-10T04:30:28;17.90;99.90
10536;DHT22;5316;49.538;8.352;2023-06-10T04:33:05;18.00;99.90
10536;DHT22;5316;49.538;8.352;2023-06-10T04:35:50;18.10;56.50
10536;DHT22;5316;49.538;8.352;2023-06-10T04:38:16;18.20;1.00
10536;DHT22;5316;49.538;8.352;2023-06-10T04:41:05;18.20;1.00
10536;DHT22;5316;49.538;8.352;2023-06-10T04:43:31;18.20;55.70
10536;DHT22;5316;49.538;8.352;2023-06-10T04:46:06;18.30;1.00
10536;DHT22;5316;49.538;8.352;2023-06-10T04:48:32;18.40;1.00
10536;DHT22;5316;49.538;8.352;2023-06-10T04:51:00;18.50;1.00
10536;DHT22;5316;49.538;8.352;2023-06-10T04:53:28;18.60;1.00
10536;DHT22;5316;49.538;8.352;2023-06-10T04:55:56;18.60;1.00
10536;DHT22;5316;49.538;8.352;2023-06-10T04:58:22;18.60;1.00
10536;DHT22;5316;49.538;8.352;2023-06-10T05:00:49;18.70;1.00
10536;DHT22;5316;49.538;8.352;2023-06-10T05:03:19;18.70;1.00
10536;DHT22;5316;49.538;8.352;2023-06-10T05:05:46;18.80;1.00
10536;DHT22;5316;49.538;8.352;2023-06-10T05:08:13;18.80;1.00
10536;DHT22;5316;49.538;8.352;2023-06-10T05:10:40;18.90;1.00
10536;DHT22;5316;49.538;8.352;2023-06-10T05:13:07;18.90;1.00
10536;DHT22;5316;49.538;8.352;2023-06-10T05:15:34;19.10;1.00
10536;DHT22;5316;49.538;8.352;2023-06-10T05:18:00;19.10;1.00
10536;DHT22;5316;49.538;8.352;2023-06-10T05:20:30;19.20;1.00
10536;DHT22;5316;49.538;8.352;2023-06-10T05:22:57;19.20;1.00
10536;DHT22;5316;49.538;8.352;2023-06-10T05:25:25;19.40;1.00
10536;DHT22;5316;49.538;8.352;2023-06-10T05:27:52;19.40;1.00
10536;DHT22;5316;49.538;8.352;2023-06-10T05:30:19;19.50;99.90
10536;DHT22;5316;49.538;8.352;2023-06-10T05:32:45;19.50;99.90
10536;DHT22;5316;49.538;8.352;2023-06-10T05:35:12;19.50;1.00
10536;DHT22;5316;49.538;8.352;2023-06-10T05:37:40;19.70;99.90
10536;DHT22;5316;49.538;8.352;2023-06-10T05:40:08;19.70;99.90
10536;DHT22;5316;49.538;8.352;2023-06-10T05:42:35;19.80;13.30
10536;DHT22;5316;49.538;8.352;2023-06-10T05:45:02;20.00;94.90
10536;DHT22;5316;49.538;8.352;2023-06-10T05:47:29;20.00;1.00
10536;DHT22;5316;49.538;8.352;2023-06-10T05:49:56;20.20;99.90
10536;DHT22;5316;49.538;8.352;2023-06-10T05:52:23;20.30;1.00
10536;DHT22;5316;49.538;8.352;2023-06-10T05:54:51;20.40;1.00
10536;DHT22;5316;49.538;8.352;2023-06-10T05:57:19;20.40;1.00
10536;DHT22;5316;49.538;8.352;2023-06-10T05:59:46;20.50;1.00
10536;DHT22;5316;49.538;8.352;2023-06-10T06:02:13;20.60;99.90
10536;DHT22;5316;49.538;8.352;2023-06-10T06:04:41;20.80;99.90
10536;DHT22;5316;49.538;8.352;2023-06-10T06:07:08;20.80;1.00
10536;DHT22;5316;49.538;8.352;2023-06-10T06:09:35;20.80;1.00
10536;DHT22;5316;49.538;8.352;2023-06-10T06:12:04;20.90;1.00
10536;DHT22;5316;49.538;8.352;2023-06-10T06:14:32;21.00;1.00
10536;DHT22;5316;49.538;8.352;2023-06-10T06:16:59;21.00;1.00
10536;DHT22;5316;49.538;8.352;2023-06-10T06:19:25;21.00;1.00
10536;DHT22;5316;49.538;8.352;2023-06-10T06:21:52;21.10;1.00
10536;DHT22;5316;49.538;8.352;2023-06-10T06:24:19;21.20;1.00
10536;DHT22;5316;49.538;8.352;2023-06-10T06:26:46;21.30;1.00
10536;DHT22;5316;49.538;8.352;2023-06-10T06:29:14;21.30;99.90
10536;DHT22;5316;49.538;8.352;2023-06-10T06:31:42;21.40;1.00
10536;DHT22;5316;49.538;8.352;2023-06-10T06:34:08;21.50;99.90
10536;DHT22;5316;49.538;8.352;2023-06-10T06:36:36;21.60;99.90
10536;DHT22;5316;49.538;8.352;2023-06-10T06:39:03;21.70;99.90
10536;DHT22;5316;49.538;8.352;2023-06-10T06:41:30;21.80;99.90
10536;DHT22;5316;49.538;8.352;2023-06-10T06:43:56;21.80;99.90
10536;DHT22;5316;49.538;8.352;2023-06-10T06:46:25;21.90;1.00
10536;DHT22;5316;49.538;8.352;2023-06-10T06:48:52;22.00;1.00
10536;DHT22;5316;49.538;8.352;2023-06-10T06:51:18;22.00;1.00
10536;DHT22;5316;49.538;8.352;2023-06-10T06:53:45;22.10;1.00
10536;DHT22;5316;49.538;8.352;2023-06-10T06:56:13;22.20;1.00
10536;DHT22;5316;49.538;8.352;2023-06-10T06:58:43;22.20;99.90
10536;DHT22;5316;49.538;8.352;2023-06-10T07:01:13;22.30;99.90
10536;DHT22;5316;49.538;8.352;2023-06-10T07:03:42;22.50;1.00
10536;DHT22;5316;49.538;8.352;2023-06-10T07:06:09;22.40;99.90
10536;DHT22;5316;49.538;8.352;2023-06-10T07:08:54;22.50;99.90
10536;DHT22;5316;49.538;8.352;2023-06-10T07:11:22;22.60;99.90
10536;DHT22;5316;49.538;8.352;2023-06-10T07:13:48;22.70;99.90
10536;DHT22;5316;49.538;8.352;2023-06-10T07:16:15;22.70;99.90
10536;DHT22;5316;49.538;8.352;2023-06-10T07:18:43;22.70;99.90
10536;DHT22;5316;49.538;8.352;2023-06-10T07:21:10;22.80;99.90
10536;DHT22;5316;49.538;8.352;2023-06-10T07:23:37;22.90;99.90
10536;DHT22;5316;49.538;8.352;2023-06-10T07:26:08;22.90;16.80
10536;DHT22;5316;49.538;8.352;2023-06-10T07:28:37;23.00;30.00
10536;DHT22;5316;49.538;8.352;2023-06-10T07:31:10;23.10;1.00
10536;DHT22;5316;49.538;8.352;2023-06-10T07:33:37;23.10;1.00
10536;DHT22;5316;49.538;8.352;2023-06-10T07:36:06;23.30;1.00
10536;DHT22;5316;49.538;8.352;2023-06-10T07:38:33;23.40;1.00
10536;DHT22;5316;49.538;8.352;2023-06-10T07:41:00;23.50;1.00
10536;DHT22;5316;49.538;8.352;2023-06-10T07:43:27;23.60;1.00
10536;DHT22;5316;49.538;8.352;2023-06-10T07:45:54;23.60;1.00
10536;DHT22;5316;49.538;8.352;2023-06-10T07:48:20;23.70;1.00
10536;DHT22;5316;49.538;8.352;2023-06-10T07:50:47;23.80;1.00
10536;DHT22;5316;49.538;8.352;2023-06-10T07:53:16;23.80;1.00
10536;DHT22;5316;49.538;8.352;2023-06-10T07:55:43;23.90;1.00
10536;DHT22;5316;49.538;8.352;2023-06-10T07:58:10;23.90;1.00
10536;DHT22;5316;49.538;8.352;2023-06-10T08:00:37;24.00;1.00
10536;DHT22;5316;49.538;8.352;2023-06-10T08:03:04;24.00;1.00
10536;DHT22;5316;49.538;8.352;2023-06-10T08:05:31;24.10;1.00
10536;DHT22;5316;49.538;8.352;2023-06-10T08:07:57;24.10;1.00
10536;DHT22;5316;49.538;8.352;2023-06-10T08:10:26;24.10;1.00
10536;DHT22;5316;49.538;8.352;2023-06-10T08:12:53;24.20;99.90
10536;DHT22;5316;49.538;8.352;2023-06-10T08:15:20;24.20;99.90
10536;DHT22;5316;49.538;8.352;2023-06-10T08:17:47;24.30;99.90
10536;DHT22;5316;49.538;8.352;2023-06-10T08:20:15;24.40;99.90
10536;DHT22;5316;49.538;8.352;2023-06-10T08:22:43;24.50;99.90
10536;DHT22;5316;49.538;8.352;2023-06-10T08:25:10;24.30;99.90
10536;DHT22;5316;49.538;8.352;2023-06-10T08:27:38;24.50;99.90
10536;DHT22;5316;49.538;8.352;2023-06-10T08:30:07;24.50;99.90
10536;DHT22;5316;49.538;8.352;2023-06-10T08:32:36;24.70;99.90
10536;DHT22;5316;49.538;8.352;2023-06-10T08:35:03;24.70;99.90
10536;DHT22;5316;49.538;8.352;2023-06-10T08:37:31;24.80;99.90
10536;DHT22;5316;49.538;8.352;2023-06-10T08:39:57;24.80;99.90
10536;DHT22;5316;49.538;8.352;2023-06-10T08:42:28;24.90;99.90
10536;DHT22;5316;49.538;8.352;2023-06-10T08:45:01;25.00;99.90
10536;DHT22;5316;49.538;8.352;2023-06-10T08:47:30;25.10;99.90
10536;DHT22;5316;49.538;8.352;2023-06-10T08:50:03;25.20;99.90
10536;DHT22;5316;49.538;8.352;2023-06-10T08:52:35;25.20;99.90
10536;DHT22;5316;49.538;8.352;2023-06-10T08:55:04;25.30;99.90
10536;DHT22;5316;49.538;8.352;2023-06-10T08:57:32;25.30;99.90
10536;DHT22;5316;49.538;8.352;2023-06-10T09:00:00;25.30;99.90
10536;DHT22;5316;49.538;8.352;2023-06-10T09:02:28;25.30;99.90
10536;DHT22;5316;49.538;8.352;2023-06-10T09:04:56;25.40;99.90
10536;DHT22;5316;49.538;8.352;2023-06-10T09:07:23;25.40;99.90
10536;DHT22;5316;49.538;8.352;2023-06-10T09:09:50;25.40;89.10
10536;DHT22;5316;49.538;8.352;2023-06-10T09:12:19;25.50;99.90
10536;DHT22;5316;49.538;8.352;2023-06-10T09:14:45;25.50;99.20
10536;DHT22;5316;49.538;8.352;2023-06-10T09:17:14;25.60;99.70
10536;DHT22;5316;49.538;8.352;2023-06-10T09:19:42;25.70;95.00
10536;DHT22;5316;49.538;8.352;2023-06-10T09:22:10;25.70;95.00
10536;DHT22;5316;49.538;8.352;2023-06-10T09:24:38;25.80;99.90
10536;DHT22;5316;49.538;8.352;2023-06-10T09:27:06;25.90;98.10
10536;DHT22;5316;49.538;8.352;2023-06-10T09:29:45;25.90;99.90
10536;DHT22;5316;49.538;8.352;2023-06-10T09:32:14;26.00;68.40
10536;DHT22;5316;49.538;8.352;2023-06-10T09:34:41;26.10;53.50
10536;DHT22;5316;49.538;8.352;2023-06-10T09:37:08;26.10;36.40
10536;DHT22;5316;49.538;8.352;2023-06-10T09:39:38;26.10;49.90
10536;DHT22;5316;49.538;8.352;2023-06-10T09:42:15;26.10;29.30
10536;DHT22;5316;49.538;8.352;2023-06-10T09:44:49;26.10;39.30
10536;DHT22;5316;49.538;8.352;2023-06-10T09:47:30;26.20;62.60
10536;DHT22;5316;49.538;8.352;2023-06-10T09:50:31;26.20;34.20
10536;DHT22;5316;49.538;8.352;2023-06-10T09:53:10;26.40;34.30
10536;DHT22;5316;49.538;8.352;2023-06-10T09:55:39;26.30;30.70
10536;DHT22;5316;49.538;8.352;2023-06-10T09:58:35;26.30;19.20
10536;DHT22;5316;49.538;8.352;2023-06-10T10:01:13;27.00;21.20
10536;DHT22;5316;49.538;8.352;2023-06-10T10:03:56;26.30;23.30
10536;DHT22;5316;49.538;8.352;2023-06-10T10:06:34;26.40;1.00
10536;DHT22;5316;49.538;8.352;2023-06-10T10:09:17;26.50;1.00
10536;DHT22;5316;49.538;8.352;2023-06-10T10:11:52;26.60;1.00
10536;DHT22;5316;49.538;8.352;2023-06-10T10:14:23;26.60;1.00
10536;DHT22;5316;49.538;8.352;2023-06-10T10:17:00;26.50;1.00
10536;DHT22;5316;49.538;8.352;2023-06-10T10:19:32;26.80;1.00
10536;DHT22;5316;49.538;8.352;2023-06-10T10:25:55;27.00;1.00
10536;DHT22;5316;49.538;8.352;2023-06-10T10:28:37;27.10;1.00
10536;DHT22;5316;49.538;8.352;2023-06-10T10:31:17;27.10;1.00
10536;DHT22;5316;49.538;8.352;2023-06-10T10:34:01;27.10;1.00
10536;DHT22;5316;49.538;8.352;2023-06-10T10:36:45;27.40;1.00
10536;DHT22;5316;49.538;8.352;2023-06-10T10:39:16;27.40;1.00
10536;DHT22;5316;49.538;8.352;2023-06-10T10:41:55;27.50;1.00
10536;DHT22;5316;49.538;8.352;2023-06-10T10:44:25;27.60;1.00
10536;DHT22;5316;49.538;8.352;2023-06-10T10:47:02;27.60;1.00
10536;DHT22;5316;49.538;8.352;2023-06-10T10:49:37;27.70;1.00
10536;DHT22;5316;49.538;8.352;2023-06-10T10:52:14;27.90;1.00
10536;DHT22;5316;49.538;8.352;2023-06-10T10:54:54;28.00;1.00
10536;DHT22;5316;49.538;8.352;2023-06-10T10:57:39;28.20;1.00
10536;DHT22;5316;49.538;8.352;2023-06-10T11:00:29;28.40;1.00
10536;DHT22;5316;49.538;8.352;2023-06-10T11:03:14;28.50;1.00
10536;DHT22;5316;49.538;8.352;2023-06-10T11:06:13;28.70;1.00
10536;DHT22;5316;49.538;8.352;2023-06-10T11:09:39;28.70;1.00
10536;DHT22;5316;49.538;8.352;2023-06-10T11:16:56;29.00;1.00
10536;DHT22;5316;49.538;8.352;2023-06-10T11:24:17;29.40;1.00
10536;DHT22;5316;49.538;8.352;2023-06-10T11:27:46;29.50;1.00
10536;DHT22;5316;49.538;8.352;2023-06-10T11:34:42;29.70;1.00
10536;DHT22;5316;49.538;8.352;2023-06-10T11:37:51;29.60;1.00
10536;DHT22;5316;49.538;8.352;2023-06-10T11:50:49;29.50;1.00
10536;DHT22;5316;49.538;8.352;2023-06-10T11:53:40;29.50;1.00
10536;DHT22;5316;49.538;8.352;2023-06-10T12:00:27;29.70;1.00
10536;DHT22;5316;49.538;8.352;2023-06-10T12:03:11;29.80;1.00
10536;DHT22;5316;49.538;8.352;2023-06-10T12:06:21;29.80;1.00
10536;DHT22;5316;49.538;8.352;2023-06-10T12:09:36;29.90;1.00
10536;DHT22;5316;49.538;8.352;2023-06-10T12:22:02;30.10;1.00
10536;DHT22;5316;49.538;8.352;2023-06-10T12:25:07;30.20;1.00
10536;DHT22;5316;49.538;8.352;2023-06-10T12:36:35;30.80;1.00
10536;DHT22;5316;49.538;8.352;2023-06-10T12:39:42;30.60;1.00
10536;DHT22;5316;49.538;8.352;2023-06-10T12:42:51;30.50;1.00
10536;DHT22;5316;49.538;8.352;2023-06-10T12:49:15;30.40;1.00
10536;DHT22;5316;49.538;8.352;2023-06-10T12:52:08;30.50;1.00
10536;DHT22;5316;49.538;8.352;2023-06-10T12:58:49;30.20;1.00
10536;DHT22;5316;49.538;8.352;2023-06-10T13:02:01;30.30;1.00
10536;DHT22;5316;49.538;8.352;2023-06-10T13:11:42;31.20;1.00
10536;DHT22;5316;49.538;8.352;2023-06-10T15:56:44;42.60;99.90
10536;DHT22;5316;49.538;8.352;2023-06-10T16:12:35;41.50;99.90
10536;DHT22;5316;49.538;8.352;2023-06-10T16:15:37;41.60;99.90
10536;DHT22;5316;49.538;8.352;2023-06-10T16:18:52;41.50;99.90
10536;DHT22;5316;49.538;8.352;2023-06-10T16:24:07;41.80;99.90
10536;DHT22;5316;49.538;8.352;2023-06-10T16:38:56;41.90;99.90
10536;DHT22;5316;49.538;8.352;2023-06-10T16:51:29;41.50;99.90
10536;DHT22;5316;49.538;8.352;2023-06-10T17:04:33;41.60;99.90
10536;DHT22;5316;49.538;8.352;2023-06-10T17:11:28;41.50;99.90
10536;DHT22;5316;49.538;8.352;2023-06-10T17:14:37;41.20;99.90
10536;DHT22;5316;49.538;8.352;2023-06-10T17:24:15;40.60;99.90
10536;DHT22;5316;49.538;8.352;2023-06-10T17:27:03;40.90;99.90
10536;DHT22;5316;49.538;8.352;2023-06-10T17:30:12;40.70;99.90
10536;DHT22;5316;49.538;8.352;2023-06-10T17:35:55;40.30;99.90
10536;DHT22;5316;49.538;8.352;2023-06-10T17:39:03;40.30;99.90
10536;DHT22;5316;49.538;8.352;2023-06-10T17:41:22;40.20;99.90
10536;DHT22;5316;49.538;8.352;2023-06-10T17:44:01;40.30;99.90
10536;DHT22;5316;49.538;8.352;2023-06-10T17:46:37;40.20;99.90
10536;DHT22;5316;49.538;8.352;2023-06-10T17:49:09;40.00;99.90
10536;DHT22;5316;49.538;8.352;2023-06-10T17:51:41;39.90;99.90
10536;DHT22;5316;49.538;8.352;2023-06-10T17:54:16;39.70;99.90
10536;DHT22;5316;49.538;8.352;2023-06-10T17:56:54;39.50;99.90
10536;DHT22;5316;49.538;8.352;2023-06-10T17:59:30;39.30;99.90
10536;DHT22;5316;49.538;8.352;2023-06-10T18:02:07;39.10;99.90
10536;DHT22;5316;49.538;8.352;2023-06-10T18:04:42;39.10;99.90
10536;DHT22;5316;49.538;8.352;2023-06-10T18:07:32;39.20;99.90
10536;DHT22;5316;49.538;8.352;2023-06-10T18:10:21;39.10;99.90
10536;DHT22;5316;49.538;8.352;2023-06-10T18:13:16;39.10;99.90
10536;DHT22;5316;49.538;8.352;2023-06-10T18:16:02;39.10;99.90
10536;DHT22;5316;49.538;8.352;2023-06-10T18:18:45;38.90;99.90
10536;DHT22;5316;49.538;8.352;2023-06-10T18:21:31;38.80;99.90
10536;DHT22;5316;49.538;8.352;2023-06-10T18:24:07;38.40;99.90
10536;DHT22;5316;49.538;8.352;2023-06-10T18:26:45;38.10;99.90
10536;DHT22;5316;49.538;8.352;2023-06-10T18:29:49;37.90;99.90
10536;DHT22;5316;49.538;8.352;2023-06-10T18:32:27;37.50;99.90
10536;DHT22;5316;49.538;8.352;2023-06-10T18:35:04;37.20;99.90
10536;DHT22;5316;49.538;8.352;2023-06-10T18:40:06;36.20;99.90
10536;DHT22;5316;49.538;8.352;2023-06-10T18:42:35;35.70;1.00
10536;DHT22;5316;49.538;8.352;2023-06-10T18:45:15;35.30;1.00
10536;DHT22;5316;49.538;8.352;2023-06-10T18:47:42;34.80;1.00
10536;DHT22;5316;49.538;8.352;2023-06-10T18:50:13;34.50;1.00
10536;DHT22;5316;49.538;8.352;2023-06-10T18:52:51;34.10;1.00
10536;DHT22;5316;49.538;8.352;2023-06-10T18:55:18;33.70;1.00
10536;DHT22;5316;49.538;8.352;2023-06-10T18:57:46;33.30;1.00
10536;DHT22;5316;49.538;8.352;2023-06-10T19:00:22;32.70;1.00
10536;DHT22;5316;49.538;8.352;2023-06-10T19:02:52;32.40;1.00
10536;DHT22;5316;49.538;8.352;2023-06-10T19:05:21;32.00;1.00
10536;DHT22;5316;49.538;8.352;2023-06-10T19:08:03;31.50;1.00
10536;DHT22;5316;49.538;8.352;2023-06-10T19:10:32;31.20;1.00
10536;DHT22;5316;49.538;8.352;2023-06-10T19:13:09;30.90;1.00
10536;DHT22;5316;49.538;8.352;2023-06-10T19:15:42;30.60;1.00
10536;DHT22;5316;49.538;8.352;2023-06-10T19:18:09;30.40;1.00
10536;DHT22;5316;49.538;8.352;2023-06-10T19:20:40;30.10;1.00
10536;DHT22;5316;49.538;8.352;2023-06-10T19:23:11;30.00;1.00
10536;DHT22;5316;49.538;8.352;2023-06-10T19:25:42;29.80;1.00
10536;DHT22;5316;49.538;8.352;2023-06-10T19:28:09;29.60;1.00
10536;DHT22;5316;49.538;8.352;2023-06-10T19:31:05;29.50;1.00
10536;DHT22;5316;49.538;8.352;2023-06-10T19:33:33;29.30;1.00
10536;DHT22;5316;49.538;8.352;2023-06-10T19:37:03;29.30;1.00
10536;DHT22;5316;49.538;8.352;2023-06-10T19:39:06;29.10;1.00
10536;DHT22;5316;49.538;8.352;2023-06-10T19:41:33;29.00;1.00
10536;DHT22;5316;49.538;8.352;2023-06-10T19:44:02;28.90;1.00
10536;DHT22;5316;49.538;8.352;2023-06-10T19:46:41;28.80;1.00
10536;DHT22;5316;49.538;8.352;2023-06-10T19:49:13;28.70;1.00
10536;DHT22;5316;49.538;8.352;2023-06-10T19:51:47;28.60;1.00
10536;DHT22;5316;49.538;8.352;2023-06-10T19:54:20;28.50;1.00
10536;DHT22;5316;49.538;8.352;2023-06-10T19:56:50;28.40;1.00
10536;DHT22;5316;49.538;8.352;2023-06-10T19:59:23;28.30;1.00
10536;DHT22;5316;49.538;8.352;2023-06-10T20:07:34;27.90;1.00
10536;DHT22;5316;49.538;8.352;2023-06-10T20:10:31;27.90;1.00
10536;DHT22;5316;49.538;8.352;2023-06-10T20:13:11;27.70;1.00
10536;DHT22;5316;49.538;8.352;2023-06-10T20:18:41;27.50;1.00
10536;DHT22;5316;49.538;8.352;2023-06-10T20:21:14;27.50;1.00
10536;DHT22;5316;49.538;8.352;2023-06-10T20:24:23;27.40;1.00
10536;DHT22;5316;49.538;8.352;2023-06-10T20:27:09;27.40;1.00
10536;DHT22;5316;49.538;8.352;2023-06-10T20:29:40;27.30;1.00
10536;DHT22;5316;49.538;8.352;2023-06-10T20:32:14;27.30;1.00
10536;DHT22;5316;49.538;8.352;2023-06-10T20:35:01;27.20;1.00
10536;DHT22;5316;49.538;8.352;2023-06-10T20:37:37;27.20;1.00
10536;DHT22;5316;49.538;8.352;2023-06-10T20:40:15;27.30;1.00
10536;DHT22;5316;49.538;8.352;2023-06-10T20:43:04;27.20;1.00
10536;DHT22;5316;49.538;8.352;2023-06-10T20:45:39;27.20;1.00
10536;DHT22;5316;49.538;8.352;2023-06-10T20:48:29;27.10;1.00
10536;DHT22;5316;49.538;8.352;2023-06-10T20:51:30;27.10;1.00
10536;DHT22;5316;49.538;8.352;2023-06-10T20:54:07;27.00;1.00
10536;DHT22;5316;49.538;8.352;2023-06-10T20:56:57;26.90;1.00
10536;DHT22;5316;49.538;8.352;2023-06-10T20:59:33;26.90;1.00
10536;DHT22;5316;49.538;8.352;2023-06-10T21:02:13;26.80;1.00
10536;DHT22;5316;49.538;8.352;2023-06-10T21:05:05;26.70;2.00
10536;DHT22;5316;49.538;8.352;2023-06-10T21:07:48;26.70;15.90
10536;DHT22;5316;49.538;8.352;2023-06-10T21:27:18;26.20;99.90
10536;DHT22;5316;49.538;8.352;2023-06-10T21:29:45;26.10;99.90
10536;DHT22;5316;49.538;8.352;2023-06-10T21:35:36;26.00;99.90
10536;DHT22;5316;49.538;8.352;2023-06-10T21:38:15;26.00;99.90
10536;DHT22;5316;49.538;8.352;2023-06-10T21:40:41;25.80;99.90
10536;DHT22;5316;49.538;8.352;2023-06-10T21:43:08;25.80;99.90
10536;DHT22;5316;49.538;8.352;2023-06-10T21:45:35;25.80;99.90
10536;DHT22;5316;49.538;8.352;2023-06-10T21:48:02;25.70;99.90
10536;DHT22;5316;49.538;8.352;2023-06-10T21:50:29;25.70;99.90
10536;DHT22;5316;49.538;8.352;2023-06-10T21:53:04;25.60;99.90
10536;DHT22;5316;49.538;8.352;2023-06-10T21:59:28;25.50;99.90